createdAt,value
2017-12-02T00:01:47.604Z,86.50
2017-12-02T00:04:16.563Z,86.50
2017-12-02T00:06:44.780Z,86.50
2017-12-02T00:09:12.977Z,86.60
2017-12-02T00:11:42.127Z,86.90
2017-12-02T00:14:11.143Z,87.40
2017-12-02T00:16:39.360Z,87.40
2017-12-02T00:19:07.560Z,87.00
2017-12-02T00:21:35.780Z,87.10
2017-12-02T00:24:04.026Z,87.30
2017-12-02T00:26:33.014Z,87.20
2017-12-02T00:29:01.260Z,87.20
2017-12-02T00:31:29.508Z,87.10
2017-12-02T00:33:57.777Z,87.20
2017-12-02T00:36:26.006Z,87.30
2017-12-02T00:38:54.199Z,87.40
2017-12-02T00:41:23.202Z,87.80
2017-12-02T00:43:51.416Z,87.70
2017-12-02T00:46:19.655Z,87.60
2017-12-02T00:48:48.676Z,87.20
2017-12-02T00:51:16.934Z,87.20
2017-12-02T00:53:45.171Z,87.20
2017-12-02T00:56:13.394Z,86.90
2017-12-02T00:58:41.607Z,87.10
2017-12-02T01:01:09.893Z,87.40
2017-12-02T01:03:38.108Z,87.60
2017-12-02T01:06:07.126Z,87.70
2017-12-02T01:08:35.456Z,87.50
2017-12-02T01:11:03.792Z,87.40
2017-12-02T01:13:32.031Z,86.80
2017-12-02T01:16:01.096Z,86.50
2017-12-02T01:18:29.344Z,86.50
2017-12-02T01:20:57.590Z,86.80
2017-12-02T01:23:25.786Z,86.90
2017-12-02T01:25:54.132Z,86.60
2017-12-02T01:28:23.130Z,86.80
2017-12-02T01:30:51.407Z,86.80
2017-12-02T01:33:20.427Z,86.40
2017-12-02T01:35:48.645Z,86.40
2017-12-02T01:38:16.906Z,86.40
2017-12-02T01:40:45.187Z,86.40
2017-12-02T01:43:13.429Z,86.60
2017-12-02T01:45:41.621Z,86.80
2017-12-02T01:48:09.866Z,86.40
2017-12-02T01:50:38.064Z,86.10
2017-12-02T01:53:06.282Z,86.10
2017-12-02T01:55:34.503Z,86.40
2017-12-02T01:58:02.765Z,86.50
2017-12-02T02:00:31.062Z,86.30
2017-12-02T02:02:59.281Z,86.40
2017-12-02T02:05:27.501Z,85.40
2017-12-02T02:07:55.780Z,85.20
2017-12-02T02:10:24.020Z,85.20
2017-12-02T02:12:52.262Z,85.00
2017-12-02T02:15:20.455Z,85.60
2017-12-02T02:17:48.679Z,85.10
2017-12-02T02:20:16.901Z,85.10
2017-12-02T02:22:45.130Z,85.10
2017-12-02T02:25:13.354Z,85.10
2017-12-02T02:27:41.617Z,85.20
2017-12-02T02:30:09.887Z,85.10
2017-12-02T02:32:38.076Z,84.80
2017-12-02T02:35:06.315Z,84.60
2017-12-02T02:37:34.557Z,84.50
2017-12-02T02:40:03.537Z,83.80
2017-12-02T02:42:31.774Z,83.70
2017-12-02T02:45:00.012Z,83.80
2017-12-02T02:47:29.014Z,83.30
2017-12-02T02:49:57.995Z,83.20
2017-12-02T02:52:26.990Z,83.00
2017-12-02T02:54:56.052Z,83.10
2017-12-02T02:57:24.272Z,83.10
2017-12-02T02:59:53.311Z,82.70
2017-12-02T03:02:21.591Z,82.70
2017-12-02T03:04:49.911Z,83.10
2017-12-02T03:07:18.900Z,81.90
2017-12-02T03:09:47.990Z,81.70
2017-12-02T03:12:16.304Z,81.70
2017-12-02T03:14:44.548Z,81.60
2017-12-02T03:17:13.590Z,82.20
2017-12-02T03:19:41.827Z,82.10
2017-12-02T03:22:10.832Z,81.60
2017-12-02T03:24:39.067Z,81.60
2017-12-02T03:27:07.287Z,81.60
2017-12-02T03:29:35.525Z,80.90
2017-12-02T03:32:03.774Z,81.50
2017-12-02T03:34:32.012Z,81.40
2017-12-02T03:37:00.215Z,81.10
2017-12-02T03:39:28.424Z,81.40
2017-12-02T03:41:56.659Z,81.50
2017-12-02T03:44:24.918Z,81.40
2017-12-02T03:46:53.142Z,81.30
2017-12-02T03:49:21.393Z,81.20
2017-12-02T03:51:49.622Z,81.60
2017-12-02T03:54:18.635Z,81.90
2017-12-02T03:56:47.652Z,81.50
2017-12-02T03:59:15.913Z,81.50
2017-12-02T04:01:44.193Z,81.60
2017-12-02T04:04:12.466Z,81.70
2017-12-02T04:06:40.720Z,82.00
2017-12-02T04:09:09.738Z,82.60
2017-12-02T04:11:38.917Z,82.50
2017-12-02T04:14:08.337Z,83.20
2017-12-02T04:16:36.675Z,83.20
2017-12-02T04:19:04.957Z,83.70
2017-12-02T04:21:33.297Z,83.90
2017-12-02T04:24:01.596Z,84.10
2017-12-02T04:26:29.975Z,84.20
2017-12-02T04:28:58.976Z,85.00
2017-12-02T04:31:27.254Z,85.00
2017-12-02T04:33:55.494Z,85.30
2017-12-02T04:36:23.695Z,85.70
2017-12-02T04:38:51.919Z,86.00
2017-12-02T04:41:20.131Z,86.10
2017-12-02T04:43:48.394Z,86.20
2017-12-02T04:46:16.663Z,86.50
2017-12-02T04:48:44.949Z,86.80
2017-12-02T04:51:13.206Z,87.30
2017-12-02T04:53:41.446Z,87.90
2017-12-02T04:56:09.711Z,87.90
2017-12-02T04:58:37.949Z,87.80
2017-12-02T05:01:06.148Z,88.40
2017-12-02T05:03:34.391Z,88.60
2017-12-02T05:06:02.587Z,88.70
2017-12-02T05:08:30.783Z,88.70
2017-12-02T05:10:59.029Z,88.70
2017-12-02T05:13:27.268Z,88.70
2017-12-02T05:15:56.259Z,89.20
2017-12-02T05:18:25.238Z,89.40
2017-12-02T05:20:53.529Z,90.00
2017-12-02T05:23:22.546Z,89.40
2017-12-02T05:25:50.784Z,89.40
2017-12-02T05:28:19.044Z,89.40
2017-12-02T05:30:48.154Z,89.40
2017-12-02T05:33:16.399Z,89.40
2017-12-02T05:35:44.642Z,89.50
2017-12-02T05:38:12.852Z,89.60
2017-12-02T05:40:41.122Z,89.90
2017-12-02T05:43:09.317Z,89.90
2017-12-02T05:45:37.541Z,90.00
2017-12-02T05:48:06.595Z,90.00
2017-12-02T05:50:34.806Z,90.00
2017-12-02T05:53:03.039Z,90.00
2017-12-02T05:55:31.339Z,90.00
2017-12-02T05:57:59.714Z,90.10
2017-12-02T06:00:27.938Z,90.20
2017-12-02T06:02:56.178Z,90.20
2017-12-02T06:05:25.140Z,90.00
2017-12-02T06:07:53.383Z,90.00
2017-12-02T06:10:21.966Z,90.10
2017-12-02T06:12:50.235Z,90.10
2017-12-02T06:15:18.495Z,90.10
2017-12-02T06:17:47.456Z,90.30
2017-12-02T06:20:15.710Z,90.20
2017-12-02T06:22:43.934Z,90.60
2017-12-02T06:25:12.969Z,90.50
2017-12-02T06:27:41.179Z,90.50
2017-12-02T06:30:10.411Z,90.50
2017-12-02T06:32:39.401Z,90.60
2017-12-02T06:35:08.377Z,90.50
2017-12-02T06:37:36.617Z,90.50
2017-12-02T06:40:04.818Z,90.50
2017-12-02T06:42:33.030Z,90.50
2017-12-02T06:45:01.974Z,90.40
2017-12-02T06:47:30.217Z,90.40
2017-12-02T06:49:58.470Z,90.30
2017-12-02T06:52:27.456Z,90.20
2017-12-02T06:54:56.415Z,90.60
2017-12-02T06:57:24.646Z,90.20
2017-12-02T06:59:52.823Z,90.20
2017-12-02T07:02:21.080Z,90.10
2017-12-02T07:04:50.062Z,90.10
2017-12-02T07:07:18.338Z,90.00
2017-12-02T07:09:47.324Z,90.20
2017-12-02T07:12:15.654Z,90.20
2017-12-02T07:14:43.943Z,90.10
2017-12-02T07:17:12.226Z,90.10
2017-12-02T07:19:41.255Z,90.00
2017-12-02T07:22:09.479Z,89.80
2017-12-02T07:24:37.663Z,89.80
2017-12-02T07:27:05.889Z,89.80
2017-12-02T07:29:34.535Z,89.80
2017-12-02T07:32:02.760Z,89.60
2017-12-02T07:34:31.690Z,89.50
2017-12-02T07:36:59.972Z,89.50
2017-12-02T07:39:28.192Z,89.30
2017-12-02T07:41:56.406Z,88.70
2017-12-02T07:44:24.628Z,88.30
2017-12-02T07:46:52.801Z,87.70
2017-12-02T07:49:21.002Z,86.60
2017-12-02T07:51:50.014Z,85.00
2017-12-02T07:54:18.254Z,84.90
2017-12-02T07:56:46.486Z,84.50
2017-12-02T07:59:14.809Z,84.20
2017-12-02T08:01:43.009Z,84.10
2017-12-02T08:04:11.263Z,84.40
2017-12-02T08:06:39.598Z,83.50
2017-12-02T08:09:07.806Z,82.20
2017-12-02T08:11:36.033Z,81.50
2017-12-02T08:14:04.210Z,81.40
2017-12-02T08:16:32.383Z,80.10
2017-12-02T08:19:00.547Z,79.60
2017-12-02T08:21:28.726Z,79.60
2017-12-02T08:23:56.965Z,79.30
2017-12-02T08:26:25.220Z,79.00
2017-12-02T08:28:53.427Z,78.40
2017-12-02T08:31:21.603Z,78.20
2017-12-02T08:33:50.728Z,78.90
2017-12-02T08:36:18.962Z,78.90
2017-12-02T08:38:47.165Z,78.00
2017-12-02T08:41:16.184Z,77.90
2017-12-02T08:43:44.369Z,77.90
2017-12-02T08:46:13.864Z,77.40
2017-12-02T08:48:42.107Z,76.80
2017-12-02T08:51:11.086Z,75.00
2017-12-02T08:53:39.262Z,75.10
2017-12-02T08:56:07.422Z,74.40
2017-12-02T08:58:36.378Z,73.50
2017-12-02T09:01:04.566Z,73.40
2017-12-02T09:03:32.780Z,72.70
2017-12-02T09:06:00.998Z,71.70
2017-12-02T09:08:29.179Z,71.10
2017-12-02T09:10:57.364Z,69.80
2017-12-02T09:13:25.537Z,67.90
2017-12-02T09:15:53.694Z,69.10
2017-12-02T09:18:21.877Z,68.30
2017-12-02T09:20:50.053Z,66.20
2017-12-02T09:23:18.266Z,65.00
2017-12-02T09:25:47.202Z,64.30
2017-12-02T09:28:15.414Z,64.20
2017-12-02T09:30:43.606Z,63.30
2017-12-02T09:33:12.586Z,62.50
2017-12-02T09:35:40.754Z,62.30
2017-12-02T09:38:08.938Z,62.60
2017-12-02T09:40:37.891Z,60.60
2017-12-02T09:43:06.062Z,60.50
2017-12-02T09:45:34.233Z,59.40
2017-12-02T09:48:02.393Z,59.00
2017-12-02T09:50:30.593Z,58.60
2017-12-02T09:53:00.857Z,59.70
2017-12-02T09:55:29.802Z,57.30
2017-12-02T09:57:57.982Z,57.20
2017-12-02T10:00:26.165Z,57.10
2017-12-02T10:02:54.359Z,55.40
2017-12-02T10:05:26.190Z,56.00
2017-12-02T10:08:10.491Z,54.80
2017-12-02T10:10:39.983Z,53.60
2017-12-02T10:13:18.353Z,53.60
2017-12-02T10:15:48.900Z,53.70
2017-12-02T10:18:17.776Z,53.70
2017-12-02T10:20:46.042Z,54.00
2017-12-02T10:23:14.685Z,53.50
2017-12-02T10:26:04.449Z,53.10
2017-12-02T10:29:07.961Z,52.50
2017-12-02T10:31:58.889Z,50.70
2017-12-02T10:35:06.016Z,50.60
2017-12-02T10:40:35.708Z,43.10
2017-12-02T10:43:04.693Z,37.10
2017-12-02T10:45:35.328Z,36.60
2017-12-02T10:48:06.437Z,35.90
2017-12-02T10:50:35.575Z,34.50
2017-12-02T10:53:04.522Z,33.30
2017-12-02T10:55:32.755Z,33.20
2017-12-02T10:58:01.729Z,30.00
2017-12-02T11:00:31.155Z,29.50
2017-12-02T11:02:59.337Z,28.90
2017-12-02T11:05:27.523Z,29.10
2017-12-02T11:07:55.697Z,29.20
2017-12-02T11:10:23.886Z,28.80
2017-12-02T11:12:52.095Z,29.30
2017-12-02T11:15:20.295Z,29.40
2017-12-02T11:17:49.250Z,31.80
2017-12-02T11:20:17.442Z,31.80
2017-12-02T11:22:45.671Z,34.30
2017-12-02T11:25:13.886Z,35.60
2017-12-02T11:27:42.092Z,36.20
2017-12-02T11:30:11.163Z,31.80
2017-12-02T11:32:39.351Z,31.80
2017-12-02T11:35:08.295Z,30.60
2017-12-02T11:37:36.483Z,30.60
2017-12-02T11:40:04.757Z,30.90
2017-12-02T11:42:32.946Z,27.40
2017-12-02T11:45:01.221Z,27.20
2017-12-02T11:47:29.484Z,26.90
2017-12-02T11:49:57.662Z,26.20
2017-12-02T11:52:25.868Z,26.30
2017-12-02T11:54:54.829Z,26.20
2017-12-02T11:57:23.016Z,26.20
2017-12-02T11:59:51.228Z,27.70
2017-12-02T12:02:20.222Z,28.60
2017-12-02T12:04:49.176Z,28.80
2017-12-02T12:07:17.411Z,28.70
2017-12-02T12:09:45.678Z,28.70
2017-12-02T12:12:13.886Z,29.00
2017-12-02T12:14:42.084Z,29.90
2017-12-02T12:17:10.309Z,30.10
2017-12-02T12:19:38.535Z,29.90
2017-12-02T12:22:06.749Z,29.90
2017-12-02T12:24:34.980Z,29.60
2017-12-02T12:27:03.188Z,29.20
2017-12-02T12:29:32.163Z,29.40
2017-12-02T12:32:00.361Z,29.30
2017-12-02T12:34:29.315Z,28.90
2017-12-02T12:36:57.573Z,28.90
2017-12-02T12:39:25.754Z,27.70
2017-12-02T12:41:53.954Z,27.50
2017-12-02T12:44:22.160Z,27.00
2017-12-02T12:46:50.378Z,27.50
2017-12-02T12:49:18.557Z,27.40
2017-12-02T12:51:46.774Z,27.30
2017-12-02T12:54:15.802Z,26.40
2017-12-02T12:56:43.993Z,26.40
2017-12-02T12:59:12.221Z,25.80
2017-12-02T13:01:41.167Z,25.70
2017-12-02T13:04:09.411Z,25.60
2017-12-02T13:06:37.599Z,26.10
2017-12-02T13:09:05.830Z,27.70
2017-12-02T13:11:34.797Z,28.90
2017-12-02T13:14:02.976Z,28.90
2017-12-02T13:16:31.168Z,30.00
2017-12-02T13:19:00.137Z,33.30
2017-12-02T13:21:28.335Z,33.00
2017-12-02T13:23:56.544Z,35.30
2017-12-02T13:26:24.728Z,38.20
2017-12-02T13:28:52.954Z,39.20
2017-12-02T13:31:21.162Z,40.00
2017-12-02T13:33:49.344Z,39.60
2017-12-02T13:36:17.544Z,40.30
2017-12-02T13:38:45.815Z,42.40
2017-12-02T13:41:14.072Z,45.00
2017-12-02T13:43:42.265Z,45.10
2017-12-02T13:46:10.475Z,43.70
2017-12-02T13:48:38.708Z,42.80
2017-12-02T13:51:06.939Z,42.40
2017-12-02T13:53:35.191Z,43.70
2017-12-02T13:56:03.380Z,45.60
2017-12-02T13:58:31.599Z,47.20
2017-12-02T14:00:59.794Z,46.60
2017-12-02T14:03:28.072Z,43.20
2017-12-02T14:05:56.303Z,41.10
2017-12-02T14:08:25.277Z,42.70
2017-12-02T14:10:53.489Z,42.70
2017-12-02T14:13:21.717Z,45.80
2017-12-02T14:15:49.907Z,46.50
2017-12-02T14:18:18.110Z,46.40
2017-12-02T14:20:47.057Z,48.10
2017-12-02T14:23:15.228Z,48.00
2017-12-02T14:25:43.424Z,49.00
2017-12-02T14:28:11.611Z,50.40
2017-12-02T14:30:40.585Z,53.10
2017-12-02T14:33:08.792Z,53.10
2017-12-02T14:35:37.992Z,54.20
2017-12-02T14:38:06.924Z,54.00
2017-12-02T14:40:35.119Z,53.90
2017-12-02T14:43:03.300Z,54.20
2017-12-02T14:45:31.488Z,54.50
2017-12-02T14:47:59.679Z,54.80
2017-12-02T14:50:28.606Z,56.30
2017-12-02T14:52:56.854Z,56.30
2017-12-02T14:55:25.042Z,56.30
2017-12-02T14:57:53.231Z,56.00
2017-12-02T15:00:21.403Z,57.00
2017-12-02T15:02:49.630Z,57.50
2017-12-02T15:05:18.637Z,58.60
2017-12-02T15:07:47.805Z,59.10
2017-12-02T15:10:16.027Z,59.00
2017-12-02T15:12:44.243Z,59.20
2017-12-02T15:15:12.554Z,59.80
2017-12-02T15:17:41.637Z,61.30
2017-12-02T15:20:09.995Z,61.10
2017-12-02T15:22:38.423Z,61.50
2017-12-02T15:25:07.383Z,61.90
2017-12-02T15:27:35.614Z,61.80
2017-12-02T15:30:04.666Z,62.40
2017-12-02T15:32:32.843Z,63.80
2017-12-02T15:35:01.058Z,65.30
2017-12-02T15:37:29.381Z,66.30
2017-12-02T15:39:57.594Z,66.90
2017-12-02T15:42:26.558Z,68.40
2017-12-02T15:44:54.773Z,68.40
2017-12-02T15:47:22.997Z,69.10
2017-12-02T15:49:52.349Z,69.60
2017-12-02T15:52:21.310Z,69.90
2017-12-02T15:54:50.476Z,69.80
2017-12-02T15:57:18.661Z,70.30
2017-12-02T15:59:46.855Z,70.30
2017-12-02T16:02:15.052Z,70.40
2017-12-02T16:04:44.030Z,70.50
2017-12-02T16:07:13.156Z,70.60
2017-12-02T16:09:41.513Z,70.60
2017-12-02T16:12:10.472Z,71.60
2017-12-02T16:14:38.684Z,71.40
2017-12-02T16:17:07.745Z,72.10
2017-12-02T16:19:35.950Z,72.00
2017-12-02T16:22:04.957Z,72.50
2017-12-02T16:24:33.987Z,72.50
2017-12-02T16:27:02.237Z,72.50
2017-12-02T16:29:30.504Z,73.00
2017-12-02T16:31:58.808Z,73.30
2017-12-02T16:34:27.058Z,73.70
2017-12-02T16:36:56.129Z,74.60
2017-12-02T16:39:24.457Z,74.50
2017-12-02T16:41:52.720Z,75.40
2017-12-02T16:44:20.962Z,74.70
2017-12-02T16:46:49.190Z,75.00
2017-12-02T16:49:17.466Z,75.40
2017-12-02T16:51:45.667Z,75.50
2017-12-02T16:54:13.948Z,75.80
2017-12-02T16:56:42.206Z,76.10
2017-12-02T16:59:10.486Z,76.20
2017-12-02T17:01:38.683Z,76.50
2017-12-02T17:04:06.943Z,76.40
2017-12-02T17:06:35.145Z,76.60
2017-12-02T17:09:03.404Z,76.80
2017-12-02T17:11:31.595Z,76.90
2017-12-02T17:14:00.581Z,77.60
2017-12-02T17:16:28.801Z,77.60
2017-12-02T17:18:56.989Z,77.90
2017-12-02T17:21:25.242Z,78.40
2017-12-02T17:23:54.220Z,78.60
2017-12-02T17:26:23.281Z,78.90
2017-12-02T17:28:51.569Z,78.90
2017-12-02T17:31:19.805Z,79.10
2017-12-02T17:33:48.040Z,79.40
2017-12-02T17:36:17.093Z,79.70
2017-12-02T17:38:45.304Z,79.40
2017-12-02T17:41:13.552Z,79.80
2017-12-02T17:43:42.554Z,79.80
2017-12-02T17:46:10.834Z,79.80
2017-12-02T17:48:39.075Z,81.00
2017-12-02T17:51:07.354Z,81.00
2017-12-02T17:53:35.569Z,81.10
2017-12-02T17:56:03.806Z,81.80
2017-12-02T17:58:32.074Z,81.90
2017-12-02T18:01:00.314Z,82.00
2017-12-02T18:03:28.534Z,81.80
2017-12-02T18:05:56.724Z,81.80
2017-12-02T18:08:24.945Z,82.30
2017-12-02T18:10:53.983Z,82.60
2017-12-02T18:13:22.238Z,82.50
2017-12-02T18:15:52.952Z,83.40
2017-12-02T18:18:22.023Z,82.80
2017-12-02T18:20:50.261Z,82.70
2017-12-02T18:23:18.489Z,82.70
2017-12-02T18:25:46.663Z,83.00
2017-12-02T18:28:14.884Z,83.00
2017-12-02T18:30:43.123Z,83.10
2017-12-02T18:33:12.112Z,82.90
2017-12-02T18:35:41.118Z,82.60
2017-12-02T18:38:10.067Z,82.60
2017-12-02T18:40:38.286Z,82.50
2017-12-02T18:43:07.274Z,82.40
2017-12-02T18:45:36.267Z,82.30
2017-12-02T18:48:05.264Z,82.20
2017-12-02T18:50:34.384Z,82.50
2017-12-02T18:53:02.594Z,82.30
2017-12-02T18:55:30.838Z,83.40
2017-12-02T18:57:59.089Z,83.80
2017-12-02T19:00:28.042Z,83.60
2017-12-02T19:02:56.260Z,83.50
2017-12-02T19:05:25.193Z,83.20
2017-12-02T19:07:53.402Z,83.10
2017-12-02T19:10:21.630Z,83.20
2017-12-02T19:12:49.899Z,83.60
2017-12-02T19:15:18.140Z,84.20
2017-12-02T19:17:46.440Z,84.50
2017-12-02T19:20:14.636Z,84.00
2017-12-02T19:22:42.878Z,83.80
2017-12-02T19:25:11.857Z,83.70
2017-12-02T19:27:40.057Z,83.60
2017-12-02T19:30:09.032Z,84.00
2017-12-02T19:32:37.211Z,83.90
2017-12-02T19:35:06.216Z,84.20
2017-12-02T19:37:35.168Z,83.90
2017-12-02T19:40:03.399Z,83.80
2017-12-02T19:42:31.576Z,84.20
2017-12-02T19:44:59.785Z,83.90
2017-12-02T19:47:27.955Z,84.00
2017-12-02T19:49:56.164Z,84.10
2017-12-02T19:52:24.342Z,84.10
2017-12-02T19:54:53.399Z,85.30
2017-12-02T19:57:21.650Z,84.40
2017-12-02T19:59:49.871Z,84.60
2017-12-02T20:02:18.102Z,84.50
2017-12-02T20:04:46.328Z,84.60
2017-12-02T20:07:14.563Z,84.50
2017-12-02T20:09:42.827Z,84.50
2017-12-02T20:12:11.044Z,84.60
2017-12-02T20:14:39.241Z,84.50
2017-12-02T20:17:08.237Z,84.70
2017-12-02T20:19:37.199Z,85.30
2017-12-02T20:22:05.402Z,84.70
2017-12-02T20:24:33.601Z,85.50
2017-12-02T20:27:01.844Z,85.60
2017-12-02T20:29:30.038Z,85.40
2017-12-02T20:31:58.966Z,85.30
2017-12-02T20:34:27.138Z,85.30
2017-12-02T20:36:55.328Z,85.20
2017-12-02T20:39:23.526Z,85.00
2017-12-02T20:41:51.731Z,85.00
2017-12-02T20:44:20.701Z,84.40
2017-12-02T20:46:48.862Z,84.40
2017-12-02T20:49:17.035Z,84.00
2017-12-02T20:51:45.213Z,83.80
2017-12-02T20:54:14.218Z,83.60
2017-12-02T20:56:42.389Z,83.60
2017-12-02T20:59:10.545Z,84.20
2017-12-02T21:01:38.715Z,84.20
2017-12-02T21:04:06.901Z,83.80
2017-12-02T21:06:35.066Z,83.70
2017-12-02T21:09:03.247Z,83.80
2017-12-02T21:11:31.451Z,83.90
2017-12-02T21:13:59.691Z,84.00
2017-12-02T21:16:27.899Z,84.20
2017-12-02T21:18:56.126Z,84.10
2017-12-02T21:21:24.312Z,84.50
2017-12-02T21:23:52.473Z,84.70
2017-12-02T21:26:20.630Z,84.70
2017-12-02T21:28:49.595Z,84.00
2017-12-02T21:31:17.773Z,84.00
2017-12-02T21:33:46.718Z,85.00
2017-12-02T21:36:14.908Z,84.30
2017-12-02T21:38:43.079Z,84.40
2017-12-02T21:41:11.289Z,84.00
2017-12-02T21:43:39.507Z,84.20
2017-12-02T21:46:07.761Z,84.60
2017-12-02T21:48:36.717Z,84.70
2017-12-02T21:51:04.927Z,84.70
2017-12-02T21:53:33.868Z,84.70
2017-12-02T21:56:02.038Z,84.70
2017-12-02T21:58:30.272Z,84.70
2017-12-02T22:00:58.464Z,84.80
2017-12-02T22:03:26.626Z,85.10
2017-12-02T22:05:54.822Z,84.90
2017-12-02T22:08:22.991Z,84.80
2017-12-02T22:10:51.222Z,85.00
2017-12-02T22:13:19.943Z,85.00
2017-12-02T22:15:48.179Z,85.30
2017-12-02T22:18:16.442Z,85.10
2017-12-02T22:20:44.636Z,85.20
2017-12-02T22:23:12.821Z,85.00
2017-12-02T22:25:41.775Z,85.10
2017-12-02T22:28:09.996Z,85.00
2017-12-02T22:30:38.976Z,85.20
2017-12-02T22:33:07.996Z,85.50
2017-12-02T22:35:36.259Z,85.40
2017-12-02T22:38:05.250Z,86.80
2017-12-02T22:40:34.234Z,87.30
2017-12-02T22:43:02.450Z,87.20
2017-12-02T22:45:30.676Z,88.10
2017-12-02T22:47:58.863Z,88.40
2017-12-02T22:50:27.832Z,88.80
2017-12-02T22:52:56.055Z,88.70
2017-12-02T22:55:24.242Z,88.90
2017-12-02T22:57:52.431Z,89.00
2017-12-02T23:00:20.684Z,89.00
2017-12-02T23:02:48.930Z,89.20
2017-12-02T23:05:17.109Z,88.70
2017-12-02T23:07:46.115Z,88.70
2017-12-02T23:10:15.112Z,88.70
2017-12-02T23:12:44.079Z,88.80
2017-12-02T23:15:12.291Z,88.60
2017-12-02T23:17:40.500Z,88.50
2017-12-02T23:20:08.682Z,88.40
2017-12-02T23:22:36.907Z,88.90
2017-12-02T23:25:05.102Z,88.30
2017-12-02T23:27:33.302Z,89.80
2017-12-02T23:30:01.601Z,88.80
2017-12-02T23:32:29.807Z,87.90
2017-12-02T23:34:58.002Z,87.40
2017-12-02T23:37:26.195Z,87.60
2017-12-02T23:39:54.379Z,87.80
2017-12-02T23:42:22.626Z,87.50
2017-12-02T23:44:51.601Z,87.30
2017-12-02T23:47:20.557Z,87.60
2017-12-02T23:49:48.744Z,87.40
2017-12-02T23:52:16.943Z,87.40
2017-12-02T23:54:45.918Z,87.40
2017-12-02T23:57:14.175Z,87.30
2017-12-02T23:59:42.557Z,87.50
